< < Back
Terminal Aerodrome Forecast


Current Version              Previous Versions:   1  2  3  4  5  6  7  8  9  

Terminal Aerodrome Forecast

666
FTUS42 KGSP 291738
TAFAVL
TAF
KAVL 291738Z 2918/3018 30005KT P6SM VCTS SCT050CB
      TEMPO 2918/2922 3SM TSRA BR OVC030CB
     FM292300 34004KT P6SM VCTS SCT070CB
     FM300300 33003KT P6SM SCT070
     FM300800 34003KT 2SM BR SCT002
     FM301400 14003KT P6SM SCT045=



Latest METAR

560
SAUS70 KWBC 301000 RRH
MTRAVL
METAR KAVL 300954Z AUTO 33005KT 10SM CLR 16/14 A3006 RMK AO2 SLP153
T01610139


USA.gov is the U.S. government's official web portal to all federal, state and local government web resources and services.